sensor_id;sensor_type;location;lat;lon;timestamp;P1;durP1;ratioP1;P2;durP2;ratioP2
22184;SDS011;11258;52.516;13.318;2024-01-15T00:01:20;9.77;;;5.03;;
22184;SDS011;11258;52.516;13.318;2024-01-15T00:03:46;11.80;;;6.03;;
22184;SDS011;11258;52.516;13.318;2024-01-15T00:06:12;10.93;;;5.70;;
22184;SDS011;11258;52.516;13.318;2024-01-15T00:08:38;10.90;;;5.70;;
22184;SDS011;11258;52.516;13.318;2024-01-15T00:11:04;10.57;;;5.60;;
22184;SDS011;11258;52.516;13.318;2024-01-15T00:13:30;9.67;;;5.80;;
22184;SDS011;11258;52.516;13.318;2024-01-15T00:15:56;8.37;;;5.50;;
22184;SDS011;11258;52.516;13.318;2024-01-15T00:18:22;20.37;;;9.07;;
22184;SDS011;11258;52.516;13.318;2024-01-15T00:20:48;10.20;;;6.27;;
22184;SDS011;11258;52.516;13.318;2024-01-15T00:23:14;10.93;;;5.57;;
22184;SDS011;11258;52.516;13.318;2024-01-15T00:25:40;10.03;;;5.53;;
22184;SDS011;11258;52.516;13.318;2024-01-15T00:28:06;11.33;;;6.13;;
22184;SDS011;11258;52.516;13.318;2024-01-15T00:30:32;9.60;;;5.47;;
22184;SDS011;11258;52.516;13.318;2024-01-15T00:32:58;9.60;;;5.70;;
22184;SDS011;11258;52.516;13.318;2024-01-15T00:35:24;8.73;;;5.30;;
22184;SDS011;11258;52.516;13.318;2024-01-15T00:37:50;10.10;;;5.67;;
22184;SDS011;11258;52.516;13.318;2024-01-15T00:40:16;10.47;;;5.63;;
22184;SDS011;11258;52.516;13.318;2024-01-15T00:42:42;9.80;;;5.50;;
22184;SDS011;11258;52.516;13.318;2024-01-15T00:45:09;8.77;;;6.00;;
22184;SDS011;11258;52.516;13.318;2024-01-15T00:47:35;7.93;;;5.20;;
22184;SDS011;11258;52.516;13.318;2024-01-15T00:50:01;11.43;;;5.30;;
22184;SDS011;11258;52.516;13.318;2024-01-15T00:52:27;11.90;;;5.00;;
22184;SDS011;11258;52.516;13.318;2024-01-15T00:54:53;10.03;;;5.47;;
22184;SDS011;11258;52.516;13.318;2024-01-15T00:57:19;11.43;;;5.47;;
22184;SDS011;11258;52.516;13.318;2024-01-15T00:59:45;10.43;;;5.27;;
22184;SDS011;11258;52.516;13.318;2024-01-15T01:02:11;10.57;;;5.13;;
22184;SDS011;11258;52.516;13.318;2024-01-15T01:04:37;10.70;;;5.07;;
22184;SDS011;11258;52.516;13.318;2024-01-15T01:07:03;10.47;;;5.70;;
22184;SDS011;11258;52.516;13.318;2024-01-15T01:09:29;8.97;;;5.03;;
22184;SDS011;11258;52.516;13.318;2024-01-15T01:11:55;10.77;;;4.97;;
22184;SDS011;11258;52.516;13.318;2024-01-15T01:14:21;9.30;;;5.33;;
22184;SDS011;11258;52.516;13.318;2024-01-15T01:16:47;9.57;;;5.80;;
22184;SDS011;11258;52.516;13.318;2024-01-15T01:19:14;12.53;;;5.83;;
22184;SDS011;11258;52.516;13.318;2024-01-15T01:21:40;11.87;;;5.60;;
22184;SDS011;11258;52.516;13.318;2024-01-15T01:24:06;10.70;;;5.83;;
22184;SDS011;11258;52.516;13.318;2024-01-15T01:26:32;13.37;;;5.47;;
22184;SDS011;11258;52.516;13.318;2024-01-15T01:28:58;8.77;;;5.43;;
22184;SDS011;11258;52.516;13.318;2024-01-15T01:31:24;10.97;;;5.83;;
22184;SDS011;11258;52.516;13.318;2024-01-15T01:33:50;10.53;;;6.00;;
22184;SDS011;11258;52.516;13.318;2024-01-15T01:36:16;16.80;;;5.93;;
22184;SDS011;11258;52.516;13.318;2024-01-15T01:38:42;13.27;;;5.93;;
22184;SDS011;11258;52.516;13.318;2024-01-15T01:41:08;10.93;;;5.63;;
22184;SDS011;11258;52.516;13.318;2024-01-15T01:43:35;9.57;;;5.50;;
22184;SDS011;11258;52.516;13.318;2024-01-15T01:46:01;10.97;;;5.60;;
22184;SDS011;11258;52.516;13.318;2024-01-15T01:48:28;11.03;;;5.67;;
22184;SDS011;11258;52.516;13.318;2024-01-15T01:50:56;10.60;;;6.20;;
22184;SDS011;11258;52.516;13.318;2024-01-15T01:53:22;13.27;;;6.33;;
22184;SDS011;11258;52.516;13.318;2024-01-15T01:55:49;13.77;;;6.87;;
22184;SDS011;11258;52.516;13.318;2024-01-15T01:58:16;11.67;;;6.37;;
22184;SDS011;11258;52.516;13.318;2024-01-15T02:00:42;14.00;;;6.90;;
22184;SDS011;11258;52.516;13.318;2024-01-15T02:03:08;11.87;;;5.67;;
22184;SDS011;11258;52.516;13.318;2024-01-15T02:05:35;12.03;;;6.13;;
22184;SDS011;11258;52.516;13.318;2024-01-15T02:08:01;10.80;;;5.70;;
22184;SDS011;11258;52.516;13.318;2024-01-15T02:10:27;11.67;;;5.80;;
22184;SDS011;11258;52.516;13.318;2024-01-15T02:12:53;12.73;;;5.97;;
22184;SDS011;11258;52.516;13.318;2024-01-15T02:15:19;11.57;;;5.23;;
22184;SDS011;11258;52.516;13.318;2024-01-15T02:20:23;12.53;;;5.33;;
22184;SDS011;11258;52.516;13.318;2024-01-15T02:22:50;8.77;;;5.13;;
22184;SDS011;11258;52.516;13.318;2024-01-15T02:25:16;8.77;;;5.50;;
22184;SDS011;11258;52.516;13.318;2024-01-15T02:27:42;10.77;;;5.23;;
22184;SDS011;11258;52.516;13.318;2024-01-15T02:30:09;8.37;;;4.03;;
22184;SDS011;11258;52.516;13.318;2024-01-15T02:32:36;10.40;;;4.83;;
22184;SDS011;11258;52.516;13.318;2024-01-15T02:35:03;8.93;;;4.50;;
22184;SDS011;11258;52.516;13.318;2024-01-15T02:37:29;7.40;;;4.27;;
22184;SDS011;11258;52.516;13.318;2024-01-15T02:39:54;7.00;;;3.63;;
22184;SDS011;11258;52.516;13.318;2024-01-15T02:42:20;9.30;;;4.47;;
22184;SDS011;11258;52.516;13.318;2024-01-15T02:44:47;11.40;;;4.33;;
22184;SDS011;11258;52.516;13.318;2024-01-15T02:47:13;9.23;;;4.17;;
22184;SDS011;11258;52.516;13.318;2024-01-15T02:49:40;9.90;;;4.53;;
22184;SDS011;11258;52.516;13.318;2024-01-15T02:52:06;7.50;;;3.93;;
22184;SDS011;11258;52.516;13.318;2024-01-15T02:54:32;9.70;;;4.17;;
22184;SDS011;11258;52.516;13.318;2024-01-15T02:56:58;7.63;;;4.43;;
22184;SDS011;11258;52.516;13.318;2024-01-15T02:59:24;7.90;;;4.07;;
22184;SDS011;11258;52.516;13.318;2024-01-15T03:01:50;7.13;;;4.20;;
22184;SDS011;11258;52.516;13.318;2024-01-15T03:04:16;9.63;;;4.63;;
22184;SDS011;11258;52.516;13.318;2024-01-15T03:06:42;10.83;;;4.50;;
22184;SDS011;11258;52.516;13.318;2024-01-15T03:09:08;6.83;;;3.83;;
22184;SDS011;11258;52.516;13.318;2024-01-15T03:11:37;7.40;;;4.30;;
22184;SDS011;11258;52.516;13.318;2024-01-15T03:14:04;9.23;;;4.00;;
22184;SDS011;11258;52.516;13.318;2024-01-15T03:16:30;8.00;;;3.57;;
22184;SDS011;11258;52.516;13.318;2024-01-15T03:18:56;6.90;;;3.57;;
22184;SDS011;11258;52.516;13.318;2024-01-15T03:21:22;6.73;;;3.53;;
22184;SDS011;11258;52.516;13.318;2024-01-15T03:23:48;10.93;;;3.53;;
22184;SDS011;11258;52.516;13.318;2024-01-15T03:26:14;8.77;;;4.37;;
22184;SDS011;11258;52.516;13.318;2024-01-15T03:28:40;8.70;;;4.10;;
22184;SDS011;11258;52.516;13.318;2024-01-15T03:31:07;8.50;;;2.93;;
22184;SDS011;11258;52.516;13.318;2024-01-15T03:33:33;7.13;;;3.33;;
22184;SDS011;11258;52.516;13.318;2024-01-15T03:35:59;7.30;;;3.50;;
22184;SDS011;11258;52.516;13.318;2024-01-15T03:38:27;7.67;;;3.53;;
22184;SDS011;11258;52.516;13.318;2024-01-15T03:40:53;7.83;;;4.23;;
22184;SDS011;11258;52.516;13.318;2024-01-15T03:43:19;8.20;;;3.70;;
22184;SDS011;11258;52.516;13.318;2024-01-15T03:45:45;9.90;;;4.03;;
22184;SDS011;11258;52.516;13.318;2024-01-15T03:48:11;6.67;;;3.30;;
22184;SDS011;11258;52.516;13.318;2024-01-15T03:50:37;6.47;;;3.63;;
22184;SDS011;11258;52.516;13.318;2024-01-15T03:53:03;5.93;;;3.43;;
22184;SDS011;11258;52.516;13.318;2024-01-15T03:55:29;11.53;;;4.00;;
22184;SDS011;11258;52.516;13.318;2024-01-15T03:57:55;12.13;;;4.43;;
22184;SDS011;11258;52.516;13.318;2024-01-15T04:00:21;9.63;;;3.73;;
22184;SDS011;11258;52.516;13.318;2024-01-15T04:02:47;8.53;;;3.30;;
22184;SDS011;11258;52.516;13.318;2024-01-15T04:05:13;6.57;;;2.63;;
22184;SDS011;11258;52.516;13.318;2024-01-15T04:07:39;8.30;;;3.23;;
22184;SDS011;11258;52.516;13.318;2024-01-15T04:10:05;7.03;;;3.20;;
22184;SDS011;11258;52.516;13.318;2024-01-15T04:12:31;5.17;;;2.93;;
22184;SDS011;11258;52.516;13.318;2024-01-15T04:14:57;7.43;;;3.30;;
22184;SDS011;11258;52.516;13.318;2024-01-15T04:17:23;8.80;;;3.70;;
22184;SDS011;11258;52.516;13.318;2024-01-15T04:19:49;7.20;;;3.37;;
22184;SDS011;11258;52.516;13.318;2024-01-15T04:22:15;7.03;;;3.17;;
22184;SDS011;11258;52.516;13.318;2024-01-15T04:24:41;7.90;;;3.13;;
22184;SDS011;11258;52.516;13.318;2024-01-15T04:27:07;6.23;;;3.10;;
22184;SDS011;11258;52.516;13.318;2024-01-15T04:29:33;7.90;;;2.83;;
22184;SDS011;11258;52.516;13.318;2024-01-15T04:31:59;8.90;;;3.17;;
22184;SDS011;11258;52.516;13.318;2024-01-15T04:34:25;5.77;;;2.70;;
22184;SDS011;11258;52.516;13.318;2024-01-15T04:36:51;6.20;;;3.20;;
22184;SDS011;11258;52.516;13.318;2024-01-15T04:39:17;8.83;;;2.63;;
22184;SDS011;11258;52.516;13.318;2024-01-15T04:41:43;8.53;;;3.23;;
22184;SDS011;11258;52.516;13.318;2024-01-15T04:44:09;6.70;;;2.63;;
22184;SDS011;11258;52.516;13.318;2024-01-15T04:46:36;5.07;;;2.73;;
22184;SDS011;11258;52.516;13.318;2024-01-15T04:49:02;5.17;;;2.07;;
22184;SDS011;11258;52.516;13.318;2024-01-15T04:51:28;10.10;;;2.60;;
22184;SDS011;11258;52.516;13.318;2024-01-15T04:53:54;10.37;;;3.07;;
22184;SDS011;11258;52.516;13.318;2024-01-15T04:56:20;5.77;;;1.93;;
22184;SDS011;11258;52.516;13.318;2024-01-15T04:58:46;6.67;;;2.33;;
22184;SDS011;11258;52.516;13.318;2024-01-15T05:01:12;5.57;;;2.60;;
22184;SDS011;11258;52.516;13.318;2024-01-15T05:03:38;4.90;;;2.20;;
22184;SDS011;11258;52.516;13.318;2024-01-15T05:06:04;7.03;;;2.10;;
22184;SDS011;11258;52.516;13.318;2024-01-15T05:08:30;5.63;;;2.10;;
22184;SDS011;11258;52.516;13.318;2024-01-15T05:10:56;6.60;;;2.73;;
22184;SDS011;11258;52.516;13.318;2024-01-15T05:13:22;7.17;;;2.27;;
22184;SDS011;11258;52.516;13.318;2024-01-15T05:15:48;3.03;;;1.60;;
22184;SDS011;11258;52.516;13.318;2024-01-15T05:18:14;4.50;;;2.33;;
22184;SDS011;11258;52.516;13.318;2024-01-15T05:20:40;5.63;;;1.47;;
22184;SDS011;11258;52.516;13.318;2024-01-15T05:23:07;7.03;;;1.93;;
22184;SDS011;11258;52.516;13.318;2024-01-15T05:25:33;5.73;;;1.93;;
22184;SDS011;11258;52.516;13.318;2024-01-15T05:27:59;5.07;;;1.40;;
22184;SDS011;11258;52.516;13.318;2024-01-15T05:30:25;5.83;;;1.83;;
22184;SDS011;11258;52.516;13.318;2024-01-15T05:32:51;5.13;;;1.60;;
22184;SDS011;11258;52.516;13.318;2024-01-15T05:35:17;4.93;;;2.03;;
22184;SDS011;11258;52.516;13.318;2024-01-15T05:37:43;5.87;;;2.13;;
22184;SDS011;11258;52.516;13.318;2024-01-15T05:40:10;4.60;;;1.70;;
22184;SDS011;11258;52.516;13.318;2024-01-15T05:42:37;5.37;;;1.70;;
22184;SDS011;11258;52.516;13.318;2024-01-15T05:45:04;5.17;;;1.60;;
22184;SDS011;11258;52.516;13.318;2024-01-15T05:47:30;5.30;;;1.67;;
22184;SDS011;11258;52.516;13.318;2024-01-15T05:49:56;11.87;;;1.87;;
22184;SDS011;11258;52.516;13.318;2024-01-15T05:52:23;4.07;;;1.70;;
22184;SDS011;11258;52.516;13.318;2024-01-15T05:54:49;2.60;;;1.23;;
22184;SDS011;11258;52.516;13.318;2024-01-15T05:57:15;4.73;;;2.00;;
22184;SDS011;11258;52.516;13.318;2024-01-15T05:59:42;4.63;;;1.17;;
22184;SDS011;11258;52.516;13.318;2024-01-15T06:02:08;3.00;;;1.33;;
22184;SDS011;11258;52.516;13.318;2024-01-15T06:04:34;5.57;;;1.47;;
22184;SDS011;11258;52.516;13.318;2024-01-15T06:07:00;5.13;;;1.57;;
22184;SDS011;11258;52.516;13.318;2024-01-15T06:09:26;5.17;;;1.53;;
22184;SDS011;11258;52.516;13.318;2024-01-15T06:11:53;6.50;;;1.90;;
22184;SDS011;11258;52.516;13.318;2024-01-15T06:14:19;4.67;;;1.77;;
22184;SDS011;11258;52.516;13.318;2024-01-15T06:16:45;2.40;;;1.20;;
22184;SDS011;11258;52.516;13.318;2024-01-15T06:19:11;7.43;;;1.50;;
22184;SDS011;11258;52.516;13.318;2024-01-15T06:21:37;3.53;;;1.60;;
22184;SDS011;11258;52.516;13.318;2024-01-15T06:24:03;6.27;;;1.27;;
22184;SDS011;11258;52.516;13.318;2024-01-15T06:26:31;3.47;;;1.17;;
22184;SDS011;11258;52.516;13.318;2024-01-15T06:28:57;3.13;;;1.27;;
22184;SDS011;11258;52.516;13.318;2024-01-15T06:31:23;4.03;;;1.20;;
22184;SDS011;11258;52.516;13.318;2024-01-15T06:33:49;5.93;;;1.50;;
22184;SDS011;11258;52.516;13.318;2024-01-15T06:36:15;5.70;;;1.53;;
22184;SDS011;11258;52.516;13.318;2024-01-15T06:38:44;8.73;;;2.80;;
22184;SDS011;11258;52.516;13.318;2024-01-15T06:41:10;2.53;;;1.30;;
22184;SDS011;11258;52.516;13.318;2024-01-15T06:43:36;7.33;;;1.67;;
22184;SDS011;11258;52.516;13.318;2024-01-15T06:46:02;8.67;;;1.93;;
22184;SDS011;11258;52.516;13.318;2024-01-15T06:48:28;6.70;;;1.97;;
22184;SDS011;11258;52.516;13.318;2024-01-15T06:50:54;4.60;;;1.47;;
22184;SDS011;11258;52.516;13.318;2024-01-15T06:53:20;3.87;;;1.63;;
22184;SDS011;11258;52.516;13.318;2024-01-15T06:55:46;8.10;;;1.20;;
22184;SDS011;11258;52.516;13.318;2024-01-15T06:58:12;4.47;;;1.43;;
22184;SDS011;11258;52.516;13.318;2024-01-15T07:00:38;4.87;;;2.07;;
22184;SDS011;11258;52.516;13.318;2024-01-15T07:03:05;5.33;;;1.10;;
22184;SDS011;11258;52.516;13.318;2024-01-15T07:05:32;8.17;;;1.47;;
22184;SDS011;11258;52.516;13.318;2024-01-15T07:07:58;7.23;;;0.93;;
22184;SDS011;11258;52.516;13.318;2024-01-15T07:10:24;2.60;;;1.10;;
22184;SDS011;11258;52.516;13.318;2024-01-15T07:12:51;5.07;;;1.20;;
22184;SDS011;11258;52.516;13.318;2024-01-15T07:15:17;2.77;;;0.90;;
22184;SDS011;11258;52.516;13.318;2024-01-15T07:17:43;6.03;;;1.17;;
22184;SDS011;11258;52.516;13.318;2024-01-15T07:20:09;5.47;;;1.03;;
22184;SDS011;11258;52.516;13.318;2024-01-15T07:22:35;7.03;;;1.10;;
22184;SDS011;11258;52.516;13.318;2024-01-15T07:25:02;4.43;;;1.37;;
22184;SDS011;11258;52.516;13.318;2024-01-15T07:27:29;6.53;;;1.07;;
22184;SDS011;11258;52.516;13.318;2024-01-15T07:29:56;2.93;;;1.03;;
22184;SDS011;11258;52.516;13.318;2024-01-15T07:32:22;9.63;;;1.23;;
22184;SDS011;11258;52.516;13.318;2024-01-15T07:34:48;6.23;;;1.20;;
22184;SDS011;11258;52.516;13.318;2024-01-15T07:37:14;8.27;;;2.00;;
22184;SDS011;11258;52.516;13.318;2024-01-15T07:39:40;2.20;;;1.70;;
22184;SDS011;11258;52.516;13.318;2024-01-15T07:42:06;4.73;;;1.70;;
22184;SDS011;11258;52.516;13.318;2024-01-15T07:44:32;7.83;;;1.57;;
22184;SDS011;11258;52.516;13.318;2024-01-15T07:46:58;7.47;;;1.53;;
22184;SDS011;11258;52.516;13.318;2024-01-15T07:49:25;6.07;;;2.43;;
22184;SDS011;11258;52.516;13.318;2024-01-15T07:51:51;2.10;;;1.03;;
22184;SDS011;11258;52.516;13.318;2024-01-15T07:54:17;10.73;;;1.57;;
22184;SDS011;11258;52.516;13.318;2024-01-15T07:59:21;4.43;;;1.23;;
22184;SDS011;11258;52.516;13.318;2024-01-15T08:01:47;6.53;;;1.13;;
22184;SDS011;11258;52.516;13.318;2024-01-15T08:04:13;4.57;;;1.13;;
22184;SDS011;11258;52.516;13.318;2024-01-15T08:06:39;3.53;;;1.43;;
22184;SDS011;11258;52.516;13.318;2024-01-15T08:09:05;8.10;;;1.13;;
22184;SDS011;11258;52.516;13.318;2024-01-15T08:11:33;5.17;;;1.23;;
22184;SDS011;11258;52.516;13.318;2024-01-15T08:13:59;11.27;;;1.57;;
22184;SDS011;11258;52.516;13.318;2024-01-15T08:16:25;7.33;;;1.30;;
22184;SDS011;11258;52.516;13.318;2024-01-15T08:18:52;4.73;;;1.53;;
22184;SDS011;11258;52.516;13.318;2024-01-15T08:21:18;5.37;;;1.20;;
22184;SDS011;11258;52.516;13.318;2024-01-15T08:23:44;2.07;;;0.93;;
22184;SDS011;11258;52.516;13.318;2024-01-15T08:26:10;8.57;;;1.47;;
22184;SDS011;11258;52.516;13.318;2024-01-15T08:28:36;5.27;;;1.33;;
22184;SDS011;11258;52.516;13.318;2024-01-15T08:31:02;7.13;;;1.67;;
22184;SDS011;11258;52.516;13.318;2024-01-15T08:33:29;4.70;;;1.43;;
22184;SDS011;11258;52.516;13.318;2024-01-15T08:35:55;5.07;;;1.20;;
22184;SDS011;11258;52.516;13.318;2024-01-15T08:38:21;5.23;;;1.30;;
22184;SDS011;11258;52.516;13.318;2024-01-15T08:40:47;3.53;;;1.27;;
22184;SDS011;11258;52.516;13.318;2024-01-15T08:43:13;9.87;;;1.33;;
22184;SDS011;11258;52.516;13.318;2024-01-15T08:45:39;6.53;;;1.27;;
22184;SDS011;11258;52.516;13.318;2024-01-15T08:48:05;5.80;;;1.00;;
22184;SDS011;11258;52.516;13.318;2024-01-15T08:50:32;3.13;;;1.10;;
22184;SDS011;11258;52.516;13.318;2024-01-15T08:52:58;4.80;;;1.10;;
22184;SDS011;11258;52.516;13.318;2024-01-15T08:55:24;5.47;;;1.13;;
22184;SDS011;11258;52.516;13.318;2024-01-15T08:57:50;3.90;;;1.17;;
22184;SDS011;11258;52.516;13.318;2024-01-15T09:00:17;3.07;;;1.00;;
22184;SDS011;11258;52.516;13.318;2024-01-15T09:02:43;2.90;;;0.93;;
22184;SDS011;11258;52.516;13.318;2024-01-15T09:05:10;6.67;;;1.07;;
22184;SDS011;11258;52.516;13.318;2024-01-15T09:07:36;3.40;;;0.83;;
22184;SDS011;11258;52.516;13.318;2024-01-15T09:10:02;3.83;;;0.80;;
22184;SDS011;11258;52.516;13.318;2024-01-15T09:12:28;6.37;;;1.27;;
22184;SDS011;11258;52.516;13.318;2024-01-15T09:14:54;8.93;;;1.60;;
22184;SDS011;11258;52.516;13.318;2024-01-15T09:17:21;4.60;;;1.30;;
22184;SDS011;11258;52.516;13.318;2024-01-15T09:19:48;3.27;;;0.80;;
22184;SDS011;11258;52.516;13.318;2024-01-15T09:22:14;7.90;;;1.93;;
22184;SDS011;11258;52.516;13.318;2024-01-15T09:24:44;6.40;;;0.97;;
22184;SDS011;11258;52.516;13.318;2024-01-15T09:27:10;2.63;;;0.97;;
22184;SDS011;11258;52.516;13.318;2024-01-15T09:29:36;8.23;;;1.50;;
22184;SDS011;11258;52.516;13.318;2024-01-15T09:32:05;3.23;;;1.67;;
22184;SDS011;11258;52.516;13.318;2024-01-15T09:34:32;1.87;;;1.17;;
22184;SDS011;11258;52.516;13.318;2024-01-15T09:36:58;4.30;;;0.97;;
22184;SDS011;11258;52.516;13.318;2024-01-15T09:39:30;4.77;;;1.13;;
22184;SDS011;11258;52.516;13.318;2024-01-15T09:41:59;4.00;;;1.07;;
22184;SDS011;11258;52.516;13.318;2024-01-15T09:44:26;1.97;;;0.93;;
22184;SDS011;11258;52.516;13.318;2024-01-15T09:46:52;7.03;;;1.27;;
22184;SDS011;11258;52.516;13.318;2024-01-15T09:49:19;6.93;;;1.10;;
22184;SDS011;11258;52.516;13.318;2024-01-15T09:51:45;3.13;;;1.00;;
22184;SDS011;11258;52.516;13.318;2024-01-15T09:54:12;7.30;;;1.10;;
22184;SDS011;11258;52.516;13.318;2024-01-15T09:56:42;3.23;;;0.90;;
22184;SDS011;11258;52.516;13.318;2024-01-15T09:59:11;6.00;;;1.67;;
22184;SDS011;11258;52.516;13.318;2024-01-15T10:01:39;5.73;;;1.03;;
22184;SDS011;11258;52.516;13.318;2024-01-15T10:04:05;2.63;;;1.37;;
22184;SDS011;11258;52.516;13.318;2024-01-15T10:06:31;2.57;;;0.90;;
22184;SDS011;11258;52.516;13.318;2024-01-15T10:08:58;3.70;;;1.13;;
22184;SDS011;11258;52.516;13.318;2024-01-15T10:11:24;2.07;;;1.00;;
22184;SDS011;11258;52.516;13.318;2024-01-15T10:13:50;3.27;;;0.97;;
22184;SDS011;11258;52.516;13.318;2024-01-15T10:16:18;3.17;;;0.90;;
22184;SDS011;11258;52.516;13.318;2024-01-15T10:18:44;7.20;;;1.17;;
22184;SDS011;11258;52.516;13.318;2024-01-15T10:21:10;6.77;;;1.70;;
22184;SDS011;11258;52.516;13.318;2024-01-15T10:23:36;5.10;;;1.30;;
22184;SDS011;11258;52.516;13.318;2024-01-15T10:26:05;4.87;;;1.83;;
22184;SDS011;11258;52.516;13.318;2024-01-15T10:28:31;2.70;;;1.67;;
22184;SDS011;11258;52.516;13.318;2024-01-15T10:30:58;5.73;;;1.10;;
22184;SDS011;11258;52.516;13.318;2024-01-15T10:33:24;7.60;;;3.20;;
22184;SDS011;11258;52.516;13.318;2024-01-15T10:35:53;3.60;;;1.13;;
22184;SDS011;11258;52.516;13.318;2024-01-15T10:38:23;1.87;;;1.00;;
22184;SDS011;11258;52.516;13.318;2024-01-15T10:40:53;2.97;;;0.90;;
22184;SDS011;11258;52.516;13.318;2024-01-15T10:43:20;2.30;;;1.03;;
22184;SDS011;11258;52.516;13.318;2024-01-15T10:45:46;2.70;;;0.87;;
22184;SDS011;11258;52.516;13.318;2024-01-15T10:48:13;2.47;;;0.90;;
22184;SDS011;11258;52.516;13.318;2024-01-15T10:50:39;4.77;;;0.87;;
22184;SDS011;11258;52.516;13.318;2024-01-15T10:53:05;5.13;;;1.40;;
22184;SDS011;11258;52.516;13.318;2024-01-15T10:55:31;1.23;;;0.60;;
22184;SDS011;11258;52.516;13.318;2024-01-15T10:57:59;1.67;;;0.87;;
22184;SDS011;11258;52.516;13.318;2024-01-15T11:00:25;2.10;;;0.93;;
22184;SDS011;11258;52.516;13.318;2024-01-15T11:02:51;1.97;;;0.70;;
22184;SDS011;11258;52.516;13.318;2024-01-15T11:05:21;2.37;;;0.80;;
22184;SDS011;11258;52.516;13.318;2024-01-15T11:07:48;2.47;;;0.77;;
22184;SDS011;11258;52.516;13.318;2024-01-15T11:11:00;0.43;;;0.40;;
22184;SDS011;11258;52.516;13.318;2024-01-15T11:13:01;1.37;;;0.80;;
22184;SDS011;11258;52.516;13.318;2024-01-15T11:15:27;1.10;;;0.87;;
22184;SDS011;11258;52.516;13.318;2024-01-15T11:18:00;1.90;;;0.50;;
22184;SDS011;11258;52.516;13.318;2024-01-15T11:20:28;1.70;;;0.67;;
22184;SDS011;11258;52.516;13.318;2024-01-15T11:22:56;2.73;;;0.53;;
22184;SDS011;11258;52.516;13.318;2024-01-15T11:25:24;1.67;;;0.73;;
22184;SDS011;11258;52.516;13.318;2024-01-15T11:27:51;1.63;;;1.10;;
22184;SDS011;11258;52.516;13.318;2024-01-15T11:30:17;0.70;;;0.60;;
22184;SDS011;11258;52.516;13.318;2024-01-15T11:32:45;1.03;;;0.70;;
22184;SDS011;11258;52.516;13.318;2024-01-15T11:35:12;1.03;;;0.53;;
22184;SDS011;11258;52.516;13.318;2024-01-15T11:42:51;2.77;;;0.97;;
22184;SDS011;11258;52.516;13.318;2024-01-15T11:45:20;2.43;;;0.80;;
22184;SDS011;11258;52.516;13.318;2024-01-15T11:50:16;4.80;;;1.20;;
22184;SDS011;11258;52.516;13.318;2024-01-15T11:52:42;1.63;;;1.00;;
22184;SDS011;11258;52.516;13.318;2024-01-15T11:57:53;3.47;;;1.03;;
22184;SDS011;11258;52.516;13.318;2024-01-15T12:00:20;3.13;;;0.93;;
22184;SDS011;11258;52.516;13.318;2024-01-15T12:02:47;1.40;;;0.80;;
22184;SDS011;11258;52.516;13.318;2024-01-15T12:05:17;2.30;;;0.87;;
22184;SDS011;11258;52.516;13.318;2024-01-15T12:07:44;3.60;;;0.90;;
22184;SDS011;11258;52.516;13.318;2024-01-15T12:10:18;1.80;;;0.80;;
22184;SDS011;11258;52.516;13.318;2024-01-15T12:15:14;0.87;;;0.50;;
22184;SDS011;11258;52.516;13.318;2024-01-15T12:17:40;3.20;;;0.60;;
22184;SDS011;11258;52.516;13.318;2024-01-15T12:20:06;1.23;;;0.70;;
22184;SDS011;11258;52.516;13.318;2024-01-15T12:22:32;1.87;;;1.03;;
22184;SDS011;11258;52.516;13.318;2024-01-15T12:24:58;1.87;;;1.00;;
22184;SDS011;11258;52.516;13.318;2024-01-15T12:27:24;1.10;;;0.90;;
22184;SDS011;11258;52.516;13.318;2024-01-15T12:29:52;1.77;;;1.17;;
22184;SDS011;11258;52.516;13.318;2024-01-15T12:32:18;0.80;;;0.60;;
22184;SDS011;11258;52.516;13.318;2024-01-15T12:34:46;2.00;;;1.00;;
22184;SDS011;11258;52.516;13.318;2024-01-15T12:37:12;0.70;;;0.70;;
22184;SDS011;11258;52.516;13.318;2024-01-15T12:39:38;1.07;;;0.73;;
22184;SDS011;11258;52.516;13.318;2024-01-15T12:42:04;3.23;;;1.07;;
22184;SDS011;11258;52.516;13.318;2024-01-15T12:44:30;0.63;;;0.60;;
22184;SDS011;11258;52.516;13.318;2024-01-15T12:46:56;4.23;;;0.73;;
22184;SDS011;11258;52.516;13.318;2024-01-15T12:49:23;1.77;;;1.00;;
22184;SDS011;11258;52.516;13.318;2024-01-15T12:52:08;0.80;;;0.73;;
22184;SDS011;11258;52.516;13.318;2024-01-15T12:54:35;3.63;;;1.03;;
22184;SDS011;11258;52.516;13.318;2024-01-15T12:57:01;1.53;;;0.87;;
22184;SDS011;11258;52.516;13.318;2024-01-15T12:59:27;2.00;;;1.07;;
22184;SDS011;11258;52.516;13.318;2024-01-15T13:01:53;3.80;;;0.90;;
22184;SDS011;11258;52.516;13.318;2024-01-15T13:04:20;1.63;;;1.00;;
22184;SDS011;11258;52.516;13.318;2024-01-15T13:06:47;1.23;;;0.80;;
22184;SDS011;11258;52.516;13.318;2024-01-15T13:09:13;0.97;;;0.80;;
22184;SDS011;11258;52.516;13.318;2024-01-15T13:11:39;1.77;;;0.70;;
22184;SDS011;11258;52.516;13.318;2024-01-15T13:14:05;0.83;;;0.60;;
22184;SDS011;11258;52.516;13.318;2024-01-15T13:16:31;0.87;;;0.70;;
22184;SDS011;11258;52.516;13.318;2024-01-15T13:18:57;2.07;;;1.07;;
22184;SDS011;11258;52.516;13.318;2024-01-15T13:21:23;2.10;;;1.23;;
22184;SDS011;11258;52.516;13.318;2024-01-15T13:23:50;1.53;;;0.77;;
22184;SDS011;11258;52.516;13.318;2024-01-15T13:26:16;2.60;;;0.90;;
22184;SDS011;11258;52.516;13.318;2024-01-15T13:28:44;1.50;;;1.00;;
22184;SDS011;11258;52.516;13.318;2024-01-15T13:31:10;1.60;;;0.80;;
22184;SDS011;11258;52.516;13.318;2024-01-15T13:33:36;1.43;;;0.90;;
22184;SDS011;11258;52.516;13.318;2024-01-15T13:36:02;0.93;;;0.63;;
22184;SDS011;11258;52.516;13.318;2024-01-15T13:38:28;2.13;;;0.87;;
22184;SDS011;11258;52.516;13.318;2024-01-15T13:40:59;1.30;;;0.77;;
22184;SDS011;11258;52.516;13.318;2024-01-15T13:43:25;1.23;;;0.83;;
22184;SDS011;11258;52.516;13.318;2024-01-15T13:45:52;2.70;;;0.90;;
22184;SDS011;11258;52.516;13.318;2024-01-15T13:48:19;2.27;;;0.83;;
22184;SDS011;11258;52.516;13.318;2024-01-15T13:50:45;4.10;;;0.63;;
22184;SDS011;11258;52.516;13.318;2024-01-15T13:53:11;4.03;;;1.13;;
22184;SDS011;11258;52.516;13.318;2024-01-15T13:55:37;1.43;;;0.70;;
22184;SDS011;11258;52.516;13.318;2024-01-15T13:58:03;2.10;;;1.20;;
22184;SDS011;11258;52.516;13.318;2024-01-15T14:00:31;2.03;;;0.80;;
22184;SDS011;11258;52.516;13.318;2024-01-15T14:02:57;1.90;;;1.30;;
22184;SDS011;11258;52.516;13.318;2024-01-15T14:05:23;4.47;;;1.40;;
22184;SDS011;11258;52.516;13.318;2024-01-15T14:07:49;4.50;;;0.90;;
22184;SDS011;11258;52.516;13.318;2024-01-15T14:10:15;5.33;;;1.20;;
22184;SDS011;11258;52.516;13.318;2024-01-15T14:12:41;1.03;;;0.70;;
22184;SDS011;11258;52.516;13.318;2024-01-15T14:15:07;3.40;;;0.87;;
22184;SDS011;11258;52.516;13.318;2024-01-15T14:17:34;2.03;;;1.00;;
22184;SDS011;11258;52.516;13.318;2024-01-15T14:20:00;2.03;;;1.30;;
22184;SDS011;11258;52.516;13.318;2024-01-15T14:22:26;4.33;;;1.13;;
22184;SDS011;11258;52.516;13.318;2024-01-15T14:24:52;1.87;;;1.00;;
22184;SDS011;11258;52.516;13.318;2024-01-15T14:27:19;4.67;;;0.83;;
22184;SDS011;11258;52.516;13.318;2024-01-15T14:29:45;0.90;;;0.60;;
22184;SDS011;11258;52.516;13.318;2024-01-15T14:32:11;3.47;;;0.97;;
22184;SDS011;11258;52.516;13.318;2024-01-15T14:34:37;5.40;;;1.00;;
22184;SDS011;11258;52.516;13.318;2024-01-15T14:37:03;1.17;;;0.60;;
22184;SDS011;11258;52.516;13.318;2024-01-15T14:39:29;3.77;;;0.80;;
22184;SDS011;11258;52.516;13.318;2024-01-15T14:41:59;5.67;;;1.10;;
22184;SDS011;11258;52.516;13.318;2024-01-15T14:44:25;2.03;;;0.90;;
22184;SDS011;11258;52.516;13.318;2024-01-15T14:46:51;2.40;;;0.83;;